sensor_id;sensor_type;location;lat;lon;timestamp;P1;durP1;ratioP1;P2;durP2;ratioP2
20415;SDS011;10367;52.202;5.996;2023-02-22T00:02:05;29.27;;;14.57;;
20415;SDS011;10367;52.202;5.996;2023-02-22T00:04:53;53.90;;;20.33;;
20415;SDS011;10367;52.202;5.996;2023-02-22T00:07:21;30.07;;;15.23;;
20415;SDS011;10367;52.202;5.996;2023-02-22T00:09:50;32.27;;;15.87;;
20415;SDS011;10367;52.202;5.996;2023-02-22T00:12:19;34.50;;;16.37;;
20415;SDS011;10367;52.202;5.996;2023-02-22T00:14:47;40.47;;;17.73;;
20415;SDS011;10367;52.202;5.996;2023-02-22T00:17:17;27.90;;;14.90;;
20415;SDS011;10367;52.202;5.996;2023-02-22T00:19:47;31.23;;;15.87;;
20415;SDS011;10367;52.202;5.996;2023-02-22T00:22:18;34.97;;;15.33;;
20415;SDS011;10367;52.202;5.996;2023-02-22T00:24:46;31.07;;;15.53;;
20415;SDS011;10367;52.202;5.996;2023-02-22T00:27:18;31.03;;;15.73;;
20415;SDS011;10367;52.202;5.996;2023-02-22T00:29:47;27.63;;;14.63;;
20415;SDS011;10367;52.202;5.996;2023-02-22T00:32:15;28.87;;;15.27;;
20415;SDS011;10367;52.202;5.996;2023-02-22T00:34:44;30.67;;;14.90;;
20415;SDS011;10367;52.202;5.996;2023-02-22T00:37:13;25.73;;;14.90;;
20415;SDS011;10367;52.202;5.996;2023-02-22T00:39:46;29.73;;;16.17;;
20415;SDS011;10367;52.202;5.996;2023-02-22T00:42:16;30.83;;;14.00;;
20415;SDS011;10367;52.202;5.996;2023-02-22T00:44:45;27.13;;;14.73;;
20415;SDS011;10367;52.202;5.996;2023-02-22T00:47:14;26.60;;;14.33;;
20415;SDS011;10367;52.202;5.996;2023-02-22T00:49:43;34.93;;;16.53;;
20415;SDS011;10367;52.202;5.996;2023-02-22T00:52:11;21.87;;;13.80;;
20415;SDS011;10367;52.202;5.996;2023-02-22T00:54:40;34.63;;;16.67;;
20415;SDS011;10367;52.202;5.996;2023-02-22T00:57:10;34.47;;;15.80;;
20415;SDS011;10367;52.202;5.996;2023-02-22T00:59:39;37.43;;;17.47;;
20415;SDS011;10367;52.202;5.996;2023-02-22T01:02:08;33.60;;;17.10;;
20415;SDS011;10367;52.202;5.996;2023-02-22T01:04:37;45.37;;;18.97;;
20415;SDS011;10367;52.202;5.996;2023-02-22T01:07:05;40.97;;;18.27;;
20415;SDS011;10367;52.202;5.996;2023-02-22T01:09:34;44.07;;;20.10;;
20415;SDS011;10367;52.202;5.996;2023-02-22T01:12:05;39.77;;;17.87;;
20415;SDS011;10367;52.202;5.996;2023-02-22T01:14:36;52.53;;;22.03;;
20415;SDS011;10367;52.202;5.996;2023-02-22T01:17:05;39.63;;;18.83;;
20415;SDS011;10367;52.202;5.996;2023-02-22T01:19:34;58.70;;;23.03;;
20415;SDS011;10367;52.202;5.996;2023-02-22T01:22:03;59.83;;;23.27;;
20415;SDS011;10367;52.202;5.996;2023-02-22T01:24:31;75.40;;;28.40;;
20415;SDS011;10367;52.202;5.996;2023-02-22T01:27:00;45.93;;;20.70;;
20415;SDS011;10367;52.202;5.996;2023-02-22T01:29:30;63.77;;;24.37;;
20415;SDS011;10367;52.202;5.996;2023-02-22T01:32:00;69.33;;;24.27;;
20415;SDS011;10367;52.202;5.996;2023-02-22T01:34:29;70.27;;;28.07;;
20415;SDS011;10367;52.202;5.996;2023-02-22T01:36:58;75.33;;;26.67;;
20415;SDS011;10367;52.202;5.996;2023-02-22T01:39:28;91.67;;;32.07;;
20415;SDS011;10367;52.202;5.996;2023-02-22T01:41:57;72.57;;;26.00;;
20415;SDS011;10367;52.202;5.996;2023-02-22T01:44:27;65.77;;;26.33;;
20415;SDS011;10367;52.202;5.996;2023-02-22T01:46:58;75.13;;;27.50;;
20415;SDS011;10367;52.202;5.996;2023-02-22T01:49:30;59.87;;;25.23;;
20415;SDS011;10367;52.202;5.996;2023-02-22T01:52:04;83.23;;;28.33;;
20415;SDS011;10367;52.202;5.996;2023-02-22T01:54:36;69.37;;;26.17;;
20415;SDS011;10367;52.202;5.996;2023-02-22T01:57:11;55.23;;;24.37;;
20415;SDS011;10367;52.202;5.996;2023-02-22T01:59:43;65.50;;;27.60;;
20415;SDS011;10367;52.202;5.996;2023-02-22T02:02:17;61.43;;;26.03;;
20415;SDS011;10367;52.202;5.996;2023-02-22T02:04:47;75.43;;;28.27;;
20415;SDS011;10367;52.202;5.996;2023-02-22T02:07:17;59.47;;;25.83;;
20415;SDS011;10367;52.202;5.996;2023-02-22T02:09:53;58.70;;;24.93;;
20415;SDS011;10367;52.202;5.996;2023-02-22T02:12:26;66.37;;;26.07;;
20415;SDS011;10367;52.202;5.996;2023-02-22T02:17:50;66.20;;;25.33;;
20415;SDS011;10367;52.202;5.996;2023-02-22T02:20:24;64.97;;;23.53;;
20415;SDS011;10367;52.202;5.996;2023-02-22T02:23:03;54.70;;;22.90;;
20415;SDS011;10367;52.202;5.996;2023-02-22T02:28:49;64.90;;;25.27;;
20415;SDS011;10367;52.202;5.996;2023-02-22T02:34:35;78.37;;;27.33;;
20415;SDS011;10367;52.202;5.996;2023-02-22T02:37:10;54.10;;;21.00;;
20415;SDS011;10367;52.202;5.996;2023-02-22T02:39:46;53.40;;;22.00;;
20415;SDS011;10367;52.202;5.996;2023-02-22T02:42:20;52.43;;;22.20;;
20415;SDS011;10367;52.202;5.996;2023-02-22T02:44:52;53.33;;;22.23;;
20415;SDS011;10367;52.202;5.996;2023-02-22T02:47:25;55.47;;;22.30;;
20415;SDS011;10367;52.202;5.996;2023-02-22T02:49:57;57.90;;;22.47;;
20415;SDS011;10367;52.202;5.996;2023-02-22T02:52:30;50.57;;;20.33;;
20415;SDS011;10367;52.202;5.996;2023-02-22T02:55:00;52.30;;;21.23;;
20415;SDS011;10367;52.202;5.996;2023-02-22T02:57:31;47.27;;;20.67;;
20415;SDS011;10367;52.202;5.996;2023-02-22T03:00:00;54.57;;;21.47;;
20415;SDS011;10367;52.202;5.996;2023-02-22T03:02:37;54.07;;;21.77;;
20415;SDS011;10367;52.202;5.996;2023-02-22T03:05:15;47.83;;;19.63;;
20415;SDS011;10367;52.202;5.996;2023-02-22T03:07:58;37.90;;;17.57;;
20415;SDS011;10367;52.202;5.996;2023-02-22T03:10:42;47.57;;;20.17;;
20415;SDS011;10367;52.202;5.996;2023-02-22T03:13:23;41.60;;;17.27;;
20415;SDS011;10367;52.202;5.996;2023-02-22T03:16:00;39.53;;;17.37;;
20415;SDS011;10367;52.202;5.996;2023-02-22T03:18:42;49.87;;;18.73;;
20415;SDS011;10367;52.202;5.996;2023-02-22T03:21:19;38.83;;;17.27;;
20415;SDS011;10367;52.202;5.996;2023-02-22T03:23:55;48.93;;;18.97;;
20415;SDS011;10367;52.202;5.996;2023-02-22T03:26:30;37.50;;;16.87;;
20415;SDS011;10367;52.202;5.996;2023-02-22T03:29:02;40.17;;;17.03;;
20415;SDS011;10367;52.202;5.996;2023-02-22T03:31:36;42.07;;;19.10;;
20415;SDS011;10367;52.202;5.996;2023-02-22T03:34:09;33.77;;;16.00;;
20415;SDS011;10367;52.202;5.996;2023-02-22T03:36:41;46.67;;;18.40;;
20415;SDS011;10367;52.202;5.996;2023-02-22T03:39:14;31.57;;;14.97;;
20415;SDS011;10367;52.202;5.996;2023-02-22T03:41:46;49.63;;;19.03;;
20415;SDS011;10367;52.202;5.996;2023-02-22T03:44:20;33.60;;;15.53;;
20415;SDS011;10367;52.202;5.996;2023-02-22T03:46:51;38.37;;;17.30;;
20415;SDS011;10367;52.202;5.996;2023-02-22T03:49:26;47.37;;;19.40;;
20415;SDS011;10367;52.202;5.996;2023-02-22T03:52:00;44.90;;;18.90;;
20415;SDS011;10367;52.202;5.996;2023-02-22T03:54:31;40.73;;;17.07;;
20415;SDS011;10367;52.202;5.996;2023-02-22T03:57:03;45.63;;;18.30;;
20415;SDS011;10367;52.202;5.996;2023-02-22T03:59:35;33.57;;;15.93;;
20415;SDS011;10367;52.202;5.996;2023-02-22T04:02:04;36.40;;;17.03;;
20415;SDS011;10367;52.202;5.996;2023-02-22T04:04:34;46.73;;;18.83;;
20415;SDS011;10367;52.202;5.996;2023-02-22T04:07:02;49.33;;;19.10;;
20415;SDS011;10367;52.202;5.996;2023-02-22T04:09:31;39.47;;;16.77;;
20415;SDS011;10367;52.202;5.996;2023-02-22T04:12:00;37.97;;;17.17;;
20415;SDS011;10367;52.202;5.996;2023-02-22T04:14:29;36.30;;;17.17;;
20415;SDS011;10367;52.202;5.996;2023-02-22T04:16:58;45.83;;;18.13;;
20415;SDS011;10367;52.202;5.996;2023-02-22T04:19:27;39.93;;;16.83;;
20415;SDS011;10367;52.202;5.996;2023-02-22T04:21:57;42.80;;;17.83;;
20415;SDS011;10367;52.202;5.996;2023-02-22T04:24:25;40.37;;;16.83;;
20415;SDS011;10367;52.202;5.996;2023-02-22T04:26:56;40.63;;;17.73;;
20415;SDS011;10367;52.202;5.996;2023-02-22T04:29:24;39.30;;;15.80;;
20415;SDS011;10367;52.202;5.996;2023-02-22T04:31:53;51.00;;;19.37;;
20415;SDS011;10367;52.202;5.996;2023-02-22T04:34:22;36.00;;;17.20;;
20415;SDS011;10367;52.202;5.996;2023-02-22T04:36:51;54.90;;;20.17;;
20415;SDS011;10367;52.202;5.996;2023-02-22T04:39:21;44.37;;;18.07;;
20415;SDS011;10367;52.202;5.996;2023-02-22T04:41:49;40.33;;;17.50;;
20415;SDS011;10367;52.202;5.996;2023-02-22T04:44:18;38.00;;;16.70;;
20415;SDS011;10367;52.202;5.996;2023-02-22T04:46:47;50.20;;;19.13;;
20415;SDS011;10367;52.202;5.996;2023-02-22T04:49:15;41.50;;;17.80;;
20415;SDS011;10367;52.202;5.996;2023-02-22T04:51:44;51.17;;;20.33;;
20415;SDS011;10367;52.202;5.996;2023-02-22T04:54:13;41.90;;;18.00;;
20415;SDS011;10367;52.202;5.996;2023-02-22T04:56:44;52.80;;;20.87;;
20415;SDS011;10367;52.202;5.996;2023-02-22T04:59:13;48.60;;;19.97;;
20415;SDS011;10367;52.202;5.996;2023-02-22T05:01:41;48.50;;;19.63;;
20415;SDS011;10367;52.202;5.996;2023-02-22T05:04:10;34.90;;;15.90;;
20415;SDS011;10367;52.202;5.996;2023-02-22T05:06:39;53.53;;;20.47;;
20415;SDS011;10367;52.202;5.996;2023-02-22T05:09:07;38.40;;;16.63;;
20415;SDS011;10367;52.202;5.996;2023-02-22T05:11:36;47.87;;;18.80;;
20415;SDS011;10367;52.202;5.996;2023-02-22T05:14:06;40.20;;;17.83;;
20415;SDS011;10367;52.202;5.996;2023-02-22T05:16:35;37.63;;;16.57;;
20415;SDS011;10367;52.202;5.996;2023-02-22T05:19:04;50.83;;;19.00;;
20415;SDS011;10367;52.202;5.996;2023-02-22T05:21:32;37.00;;;17.03;;
20415;SDS011;10367;52.202;5.996;2023-02-22T05:26:48;50.40;;;20.77;;
20415;SDS011;10367;52.202;5.996;2023-02-22T05:29:20;40.43;;;16.73;;
20415;SDS011;10367;52.202;5.996;2023-02-22T05:31:49;49.23;;;19.20;;
20415;SDS011;10367;52.202;5.996;2023-02-22T05:34:17;47.37;;;19.60;;
20415;SDS011;10367;52.202;5.996;2023-02-22T05:36:46;49.43;;;21.13;;
20415;SDS011;10367;52.202;5.996;2023-02-22T05:39:16;51.37;;;19.53;;
20415;SDS011;10367;52.202;5.996;2023-02-22T05:41:45;67.97;;;24.53;;
20415;SDS011;10367;52.202;5.996;2023-02-22T05:44:14;45.97;;;18.47;;
20415;SDS011;10367;52.202;5.996;2023-02-22T05:46:44;53.70;;;20.70;;
20415;SDS011;10367;52.202;5.996;2023-02-22T05:49:12;48.13;;;19.80;;
20415;SDS011;10367;52.202;5.996;2023-02-22T05:51:41;53.37;;;19.67;;
20415;SDS011;10367;52.202;5.996;2023-02-22T05:54:10;51.23;;;19.70;;
20415;SDS011;10367;52.202;5.996;2023-02-22T05:56:38;48.97;;;18.27;;
20415;SDS011;10367;52.202;5.996;2023-02-22T05:59:07;54.13;;;20.23;;
20415;SDS011;10367;52.202;5.996;2023-02-22T06:01:35;51.23;;;19.07;;
20415;SDS011;10367;52.202;5.996;2023-02-22T06:04:06;48.37;;;20.03;;
20415;SDS011;10367;52.202;5.996;2023-02-22T06:06:35;54.73;;;21.10;;
20415;SDS011;10367;52.202;5.996;2023-02-22T06:09:03;62.10;;;21.97;;
20415;SDS011;10367;52.202;5.996;2023-02-22T06:11:32;48.30;;;19.30;;
20415;SDS011;10367;52.202;5.996;2023-02-22T06:14:02;61.60;;;21.77;;
20415;SDS011;10367;52.202;5.996;2023-02-22T06:16:31;59.57;;;22.43;;
20415;SDS011;10367;52.202;5.996;2023-02-22T06:18:59;53.80;;;22.30;;
20415;SDS011;10367;52.202;5.996;2023-02-22T06:21:29;51.67;;;20.57;;
20415;SDS011;10367;52.202;5.996;2023-02-22T06:23:58;62.43;;;21.97;;
20415;SDS011;10367;52.202;5.996;2023-02-22T06:26:29;52.17;;;21.77;;
20415;SDS011;10367;52.202;5.996;2023-02-22T06:28:58;71.70;;;24.57;;
20415;SDS011;10367;52.202;5.996;2023-02-22T06:31:27;59.67;;;22.70;;
20415;SDS011;10367;52.202;5.996;2023-02-22T06:33:57;64.97;;;24.93;;
20415;SDS011;10367;52.202;5.996;2023-02-22T06:36:26;69.30;;;23.70;;
20415;SDS011;10367;52.202;5.996;2023-02-22T06:38:56;68.07;;;23.80;;
20415;SDS011;10367;52.202;5.996;2023-02-22T06:41:25;74.23;;;25.83;;
20415;SDS011;10367;52.202;5.996;2023-02-22T06:43:53;79.53;;;26.03;;
20415;SDS011;10367;52.202;5.996;2023-02-22T06:46:22;76.67;;;26.53;;
20415;SDS011;10367;52.202;5.996;2023-02-22T06:48:50;106.00;;;29.57;;
20415;SDS011;10367;52.202;5.996;2023-02-22T06:51:19;81.80;;;25.10;;
20415;SDS011;10367;52.202;5.996;2023-02-22T06:53:48;85.03;;;29.20;;
20415;SDS011;10367;52.202;5.996;2023-02-22T06:56:18;54.90;;;22.63;;
20415;SDS011;10367;52.202;5.996;2023-02-22T06:58:47;99.40;;;29.20;;
20415;SDS011;10367;52.202;5.996;2023-02-22T07:01:16;91.90;;;29.47;;
20415;SDS011;10367;52.202;5.996;2023-02-22T07:03:47;108.00;;;30.73;;
20415;SDS011;10367;52.202;5.996;2023-02-22T07:06:16;102.20;;;29.77;;
20415;SDS011;10367;52.202;5.996;2023-02-22T07:08:45;102.20;;;30.80;;
20415;SDS011;10367;52.202;5.996;2023-02-22T07:11:15;105.43;;;29.03;;
20415;SDS011;10367;52.202;5.996;2023-02-22T07:13:46;122.23;;;32.73;;
20415;SDS011;10367;52.202;5.996;2023-02-22T07:16:15;96.50;;;28.37;;
20415;SDS011;10367;52.202;5.996;2023-02-22T07:18:44;108.50;;;30.30;;
20415;SDS011;10367;52.202;5.996;2023-02-22T07:21:13;102.20;;;30.27;;
20415;SDS011;10367;52.202;5.996;2023-02-22T07:23:48;100.90;;;29.40;;
20415;SDS011;10367;52.202;5.996;2023-02-22T07:26:18;107.33;;;30.63;;
20415;SDS011;10367;52.202;5.996;2023-02-22T07:28:49;91.33;;;28.83;;
20415;SDS011;10367;52.202;5.996;2023-02-22T07:31:18;92.67;;;27.57;;
20415;SDS011;10367;52.202;5.996;2023-02-22T07:33:47;108.93;;;31.43;;
20415;SDS011;10367;52.202;5.996;2023-02-22T07:36:17;109.23;;;29.00;;
20415;SDS011;10367;52.202;5.996;2023-02-22T07:38:45;100.67;;;30.27;;
20415;SDS011;10367;52.202;5.996;2023-02-22T07:41:14;98.03;;;26.83;;
20415;SDS011;10367;52.202;5.996;2023-02-22T07:43:43;117.37;;;30.67;;
20415;SDS011;10367;52.202;5.996;2023-02-22T07:46:13;64.97;;;23.83;;
20415;SDS011;10367;52.202;5.996;2023-02-22T07:48:42;78.80;;;25.27;;
20415;SDS011;10367;52.202;5.996;2023-02-22T07:51:13;103.50;;;27.23;;
20415;SDS011;10367;52.202;5.996;2023-02-22T07:53:43;65.60;;;22.57;;
20415;SDS011;10367;52.202;5.996;2023-02-22T07:56:11;71.57;;;23.53;;
20415;SDS011;10367;52.202;5.996;2023-02-22T07:58:40;108.93;;;27.90;;
20415;SDS011;10367;52.202;5.996;2023-02-22T08:01:09;79.43;;;23.13;;
20415;SDS011;10367;52.202;5.996;2023-02-22T08:03:39;75.10;;;23.07;;
20415;SDS011;10367;52.202;5.996;2023-02-22T08:06:08;87.63;;;24.47;;
20415;SDS011;10367;52.202;5.996;2023-02-22T08:08:37;76.40;;;22.93;;
20415;SDS011;10367;52.202;5.996;2023-02-22T08:11:06;83.93;;;22.73;;
20415;SDS011;10367;52.202;5.996;2023-02-22T08:13:35;114.23;;;24.37;;
20415;SDS011;10367;52.202;5.996;2023-02-22T08:16:05;75.67;;;24.27;;
20415;SDS011;10367;52.202;5.996;2023-02-22T08:18:33;87.63;;;23.83;;
20415;SDS011;10367;52.202;5.996;2023-02-22T08:21:05;98.80;;;30.43;;
20415;SDS011;10367;52.202;5.996;2023-02-22T08:23:34;82.70;;;24.90;;
20415;SDS011;10367;52.202;5.996;2023-02-22T08:26:03;90.93;;;26.13;;
20415;SDS011;10367;52.202;5.996;2023-02-22T08:28:33;64.53;;;21.43;;
20415;SDS011;10367;52.202;5.996;2023-02-22T08:31:02;68.03;;;22.83;;
20415;SDS011;10367;52.202;5.996;2023-02-22T08:33:33;83.13;;;26.67;;
20415;SDS011;10367;52.202;5.996;2023-02-22T08:36:02;71.33;;;23.40;;
20415;SDS011;10367;52.202;5.996;2023-02-22T08:38:33;64.43;;;21.23;;
20415;SDS011;10367;52.202;5.996;2023-02-22T08:41:01;72.50;;;24.67;;
20415;SDS011;10367;52.202;5.996;2023-02-22T08:43:30;73.77;;;24.43;;
20415;SDS011;10367;52.202;5.996;2023-02-22T08:45:59;83.47;;;27.10;;
20415;SDS011;10367;52.202;5.996;2023-02-22T08:48:27;74.37;;;23.33;;
20415;SDS011;10367;52.202;5.996;2023-02-22T08:50:56;86.10;;;25.73;;
20415;SDS011;10367;52.202;5.996;2023-02-22T08:53:25;57.73;;;20.73;;
20415;SDS011;10367;52.202;5.996;2023-02-22T08:55:55;86.90;;;26.93;;
20415;SDS011;10367;52.202;5.996;2023-02-22T08:58:23;59.87;;;22.17;;
20415;SDS011;10367;52.202;5.996;2023-02-22T09:00:52;61.50;;;23.50;;
20415;SDS011;10367;52.202;5.996;2023-02-22T09:03:20;53.83;;;21.00;;
20415;SDS011;10367;52.202;5.996;2023-02-22T09:05:49;62.00;;;24.37;;
20415;SDS011;10367;52.202;5.996;2023-02-22T09:08:18;46.07;;;19.40;;
20415;SDS011;10367;52.202;5.996;2023-02-22T09:10:48;63.47;;;22.63;;
20415;SDS011;10367;52.202;5.996;2023-02-22T09:13:19;52.30;;;20.93;;
20415;SDS011;10367;52.202;5.996;2023-02-22T09:15:47;61.30;;;23.53;;
20415;SDS011;10367;52.202;5.996;2023-02-22T09:18:19;53.67;;;20.77;;
20415;SDS011;10367;52.202;5.996;2023-02-22T09:20:48;61.57;;;23.50;;
20415;SDS011;10367;52.202;5.996;2023-02-22T09:23:16;61.07;;;20.13;;
20415;SDS011;10367;52.202;5.996;2023-02-22T09:25:47;52.67;;;21.10;;
20415;SDS011;10367;52.202;5.996;2023-02-22T09:28:16;44.93;;;19.50;;
20415;SDS011;10367;52.202;5.996;2023-02-22T09:30:46;55.33;;;21.50;;
20415;SDS011;10367;52.202;5.996;2023-02-22T09:33:16;57.03;;;20.70;;
20415;SDS011;10367;52.202;5.996;2023-02-22T09:35:47;48.63;;;20.17;;
20415;SDS011;10367;52.202;5.996;2023-02-22T09:38:18;59.00;;;24.03;;
20415;SDS011;10367;52.202;5.996;2023-02-22T09:40:49;55.40;;;22.17;;
20415;SDS011;10367;52.202;5.996;2023-02-22T09:43:23;51.83;;;20.43;;
20415;SDS011;10367;52.202;5.996;2023-02-22T09:46:06;56.60;;;21.90;;
20415;SDS011;10367;52.202;5.996;2023-02-22T09:48:50;46.47;;;20.30;;
20415;SDS011;10367;52.202;5.996;2023-02-22T09:51:27;58.20;;;22.43;;
20415;SDS011;10367;52.202;5.996;2023-02-22T09:54:02;52.53;;;22.00;;
20415;SDS011;10367;52.202;5.996;2023-02-22T09:56:33;46.90;;;19.60;;
20415;SDS011;10367;52.202;5.996;2023-02-22T09:59:03;46.70;;;19.90;;
20415;SDS011;10367;52.202;5.996;2023-02-22T10:01:38;41.40;;;19.20;;
20415;SDS011;10367;52.202;5.996;2023-02-22T10:04:11;44.07;;;19.97;;
20415;SDS011;10367;52.202;5.996;2023-02-22T10:06:57;44.37;;;19.70;;
20415;SDS011;10367;52.202;5.996;2023-02-22T10:09:33;55.97;;;21.80;;
20415;SDS011;10367;52.202;5.996;2023-02-22T10:18:01;48.27;;;20.87;;
20415;SDS011;10367;52.202;5.996;2023-02-22T10:20:46;37.00;;;18.10;;
20415;SDS011;10367;52.202;5.996;2023-02-22T10:23:23;40.10;;;18.77;;
20415;SDS011;10367;52.202;5.996;2023-02-22T10:26:00;51.47;;;22.77;;
20415;SDS011;10367;52.202;5.996;2023-02-22T10:28:39;41.53;;;19.97;;
20415;SDS011;10367;52.202;5.996;2023-02-22T10:31:15;40.83;;;20.80;;
20415;SDS011;10367;52.202;5.996;2023-02-22T10:33:52;40.80;;;19.00;;
20415;SDS011;10367;52.202;5.996;2023-02-22T10:36:24;47.77;;;20.30;;
20415;SDS011;10367;52.202;5.996;2023-02-22T10:38:54;55.93;;;22.80;;
20415;SDS011;10367;52.202;5.996;2023-02-22T10:41:27;39.67;;;19.93;;
20415;SDS011;10367;52.202;5.996;2023-02-22T10:43:58;54.70;;;22.67;;
20415;SDS011;10367;52.202;5.996;2023-02-22T10:46:29;42.87;;;21.13;;
20415;SDS011;10367;52.202;5.996;2023-02-22T10:49:03;50.43;;;23.53;;
20415;SDS011;10367;52.202;5.996;2023-02-22T10:51:34;48.90;;;22.20;;
20415;SDS011;10367;52.202;5.996;2023-02-22T10:54:17;46.77;;;22.30;;
20415;SDS011;10367;52.202;5.996;2023-02-22T10:56:53;64.17;;;25.20;;
20415;SDS011;10367;52.202;5.996;2023-02-22T10:59:27;53.50;;;23.40;;
20415;SDS011;10367;52.202;5.996;2023-02-22T11:01:58;59.57;;;24.13;;
20415;SDS011;10367;52.202;5.996;2023-02-22T11:04:30;51.47;;;22.27;;
20415;SDS011;10367;52.202;5.996;2023-02-22T11:07:18;45.03;;;21.30;;
20415;SDS011;10367;52.202;5.996;2023-02-22T11:09:50;55.53;;;24.30;;
20415;SDS011;10367;52.202;5.996;2023-02-22T11:12:25;47.27;;;21.37;;
20415;SDS011;10367;52.202;5.996;2023-02-22T11:14:55;57.60;;;24.53;;
20415;SDS011;10367;52.202;5.996;2023-02-22T11:17:28;56.13;;;24.20;;
20415;SDS011;10367;52.202;5.996;2023-02-22T11:20:00;55.97;;;23.80;;
20415;SDS011;10367;52.202;5.996;2023-02-22T11:22:30;48.30;;;21.97;;
20415;SDS011;10367;52.202;5.996;2023-02-22T11:25:04;73.30;;;28.17;;
20415;SDS011;10367;52.202;5.996;2023-02-22T11:27:35;53.80;;;24.13;;
20415;SDS011;10367;52.202;5.996;2023-02-22T11:30:20;59.57;;;25.07;;
20415;SDS011;10367;52.202;5.996;2023-02-22T11:32:55;68.20;;;26.30;;
20415;SDS011;10367;52.202;5.996;2023-02-22T11:35:31;54.70;;;23.37;;
20415;SDS011;10367;52.202;5.996;2023-02-22T11:38:10;72.27;;;28.17;;
20415;SDS011;10367;52.202;5.996;2023-02-22T11:40:43;58.53;;;25.43;;
20415;SDS011;10367;52.202;5.996;2023-02-22T11:43:13;62.70;;;25.77;;
20415;SDS011;10367;52.202;5.996;2023-02-22T11:45:56;58.00;;;26.77;;
20415;SDS011;10367;52.202;5.996;2023-02-22T11:48:28;70.50;;;24.83;;
20415;SDS011;10367;52.202;5.996;2023-02-22T11:51:21;63.10;;;26.33;;
20415;SDS011;10367;52.202;5.996;2023-02-22T11:54:11;61.83;;;25.80;;
20415;SDS011;10367;52.202;5.996;2023-02-22T11:56:57;61.93;;;25.97;;
20415;SDS011;10367;52.202;5.996;2023-02-22T11:59:34;65.50;;;25.33;;
20415;SDS011;10367;52.202;5.996;2023-02-22T12:02:15;64.20;;;27.30;;
20415;SDS011;10367;52.202;5.996;2023-02-22T12:05:23;54.27;;;23.30;;
20415;SDS011;10367;52.202;5.996;2023-02-22T12:08:08;65.27;;;28.50;;
20415;SDS011;10367;52.202;5.996;2023-02-22T12:10:49;57.70;;;25.13;;
20415;SDS011;10367;52.202;5.996;2023-02-22T12:13:35;49.90;;;24.67;;
20415;SDS011;10367;52.202;5.996;2023-02-22T12:16:18;54.37;;;24.40;;
20415;SDS011;10367;52.202;5.996;2023-02-22T12:18:59;63.97;;;27.67;;
20415;SDS011;10367;52.202;5.996;2023-02-22T12:21:36;55.77;;;24.67;;
20415;SDS011;10367;52.202;5.996;2023-02-22T12:24:09;52.87;;;24.77;;
20415;SDS011;10367;52.202;5.996;2023-02-22T12:26:42;50.13;;;23.87;;
20415;SDS011;10367;52.202;5.996;2023-02-22T12:29:16;46.13;;;24.83;;
20415;SDS011;10367;52.202;5.996;2023-02-22T12:31:54;55.43;;;27.17;;
20415;SDS011;10367;52.202;5.996;2023-02-22T12:34:28;44.80;;;23.67;;
20415;SDS011;10367;52.202;5.996;2023-02-22T12:37:06;50.97;;;24.93;;
20415;SDS011;10367;52.202;5.996;2023-02-22T12:39:51;55.57;;;27.30;;
20415;SDS011;10367;52.202;5.996;2023-02-22T12:42:25;55.10;;;26.83;;
20415;SDS011;10367;52.202;5.996;2023-02-22T12:44:59;52.90;;;24.40;;
20415;SDS011;10367;52.202;5.996;2023-02-22T12:47:39;41.90;;;24.43;;
20415;SDS011;10367;52.202;5.996;2023-02-22T12:50:14;50.70;;;25.37;;
20415;SDS011;10367;52.202;5.996;2023-02-22T12:52:49;53.77;;;26.63;;
20415;SDS011;10367;52.202;5.996;2023-02-22T12:55:25;57.43;;;25.90;;
20415;SDS011;10367;52.202;5.996;2023-02-22T12:58:00;55.93;;;26.03;;
20415;SDS011;10367;52.202;5.996;2023-02-22T13:00:38;49.70;;;25.77;;
20415;SDS011;10367;52.202;5.996;2023-02-22T13:03:23;51.33;;;26.43;;
20415;SDS011;10367;52.202;5.996;2023-02-22T13:06:00;56.13;;;25.53;;
20415;SDS011;10367;52.202;5.996;2023-02-22T13:08:45;42.30;;;23.87;;
20415;SDS011;10367;52.202;5.996;2023-02-22T13:11:22;43.10;;;22.70;;
20415;SDS011;10367;52.202;5.996;2023-02-22T13:14:02;49.90;;;25.03;;
20415;SDS011;10367;52.202;5.996;2023-02-22T13:16:42;36.63;;;21.83;;
20415;SDS011;10367;52.202;5.996;2023-02-22T13:19:24;42.87;;;23.13;;
20415;SDS011;10367;52.202;5.996;2023-02-22T13:22:01;48.27;;;25.07;;
20415;SDS011;10367;52.202;5.996;2023-02-22T13:24:48;40.47;;;22.20;;
20415;SDS011;10367;52.202;5.996;2023-02-22T13:27:27;39.37;;;22.27;;
20415;SDS011;10367;52.202;5.996;2023-02-22T13:30:03;51.00;;;24.37;;
20415;SDS011;10367;52.202;5.996;2023-02-22T13:32:45;41.87;;;23.97;;
20415;SDS011;10367;52.202;5.996;2023-02-22T13:35:36;49.27;;;23.63;;
20415;SDS011;10367;52.202;5.996;2023-02-22T13:38:28;50.50;;;25.53;;
20415;SDS011;10367;52.202;5.996;2023-02-22T13:41:21;38.17;;;22.33;;
20415;SDS011;10367;52.202;5.996;2023-02-22T13:44:18;32.43;;;20.33;;
20415;SDS011;10367;52.202;5.996;2023-02-22T13:50:34;35.83;;;20.90;;
20415;SDS011;10367;52.202;5.996;2023-02-22T13:53:17;30.87;;;19.10;;
20415;SDS011;10367;52.202;5.996;2023-02-22T13:55:52;31.77;;;20.57;;
20415;SDS011;10367;52.202;5.996;2023-02-22T13:58:23;36.03;;;21.87;;
20415;SDS011;10367;52.202;5.996;2023-02-22T14:00:54;38.40;;;22.23;;
20415;SDS011;10367;52.202;5.996;2023-02-22T14:03:28;34.83;;;20.63;;
20415;SDS011;10367;52.202;5.996;2023-02-22T14:06:07;33.00;;;20.50;;
20415;SDS011;10367;52.202;5.996;2023-02-22T14:08:38;32.53;;;20.00;;
20415;SDS011;10367;52.202;5.996;2023-02-22T14:14:20;42.17;;;22.90;;
20415;SDS011;10367;52.202;5.996;2023-02-22T14:19:59;40.53;;;22.57;;
20415;SDS011;10367;52.202;5.996;2023-02-22T14:22:40;40.50;;;20.97;;
20415;SDS011;10367;52.202;5.996;2023-02-22T14:28:02;58.97;;;26.20;;
20415;SDS011;10367;52.202;5.996;2023-02-22T14:30:33;29.10;;;19.17;;
20415;SDS011;10367;52.202;5.996;2023-02-22T14:36:11;34.50;;;20.93;;
20415;SDS011;10367;52.202;5.996;2023-02-22T14:38:40;38.77;;;22.30;;
20415;SDS011;10367;52.202;5.996;2023-02-22T14:41:11;44.87;;;23.17;;
20415;SDS011;10367;52.202;5.996;2023-02-22T14:43:43;39.93;;;21.67;;
20415;SDS011;10367;52.202;5.996;2023-02-22T14:46:14;37.10;;;22.30;;
20415;SDS011;10367;52.202;5.996;2023-02-22T14:48:47;38.47;;;21.43;;
20415;SDS011;10367;52.202;5.996;2023-02-22T14:51:21;39.93;;;21.93;;
20415;SDS011;10367;52.202;5.996;2023-02-22T14:53:55;47.07;;;24.37;;
20415;SDS011;10367;52.202;5.996;2023-02-22T14:56:31;37.23;;;21.10;;
20415;SDS011;10367;52.202;5.996;2023-02-22T14:59:12;35.17;;;20.13;;
20415;SDS011;10367;52.202;5.996;2023-02-22T15:01:44;31.83;;;20.37;;
20415;SDS011;10367;52.202;5.996;2023-02-22T15:04:34;41.47;;;22.03;;
20415;SDS011;10367;52.202;5.996;2023-02-22T15:07:08;37.30;;;21.70;;
20415;SDS011;10367;52.202;5.996;2023-02-22T15:09:48;33.10;;;21.20;;
20415;SDS011;10367;52.202;5.996;2023-02-22T15:12:20;44.73;;;22.80;;
20415;SDS011;10367;52.202;5.996;2023-02-22T15:15:08;47.70;;;23.23;;
20415;SDS011;10367;52.202;5.996;2023-02-22T15:17:39;35.57;;;20.67;;
20415;SDS011;10367;52.202;5.996;2023-02-22T15:20:13;39.50;;;21.40;;
20415;SDS011;10367;52.202;5.996;2023-02-22T15:22:44;41.90;;;23.30;;
20415;SDS011;10367;52.202;5.996;2023-02-22T15:25:15;40.13;;;22.43;;
20415;SDS011;10367;52.202;5.996;2023-02-22T15:27:52;35.83;;;21.10;;